• Join FlightAware (Why Join?)
  • Login
  • US Flag 
09:51AM EDT


 

Airport Tracker/Info


-or-


 

Live Flight TrackerFlight Track Log ✈ CSN3950 ✈ 20-Sep-2013 ✈ ZUCK / CKG - ZGGG / CAN

Flight Track Log - Related Links

Times and Time Zones

All times are in EDT time to prevent confusion due to time zone crossing. See the CSN3950 flight status page for this flight to view local times or setup timezone preferences in your user account.

Time Position Orientation Groundspeed Altitude Reporting Facility
EDT Latitude Longitude Course Direction KTS MPH feet Rate Location/Type
03:16AM 29.6325 106.7402 135° Southeast  Level Estimated
03:17AM 29.5456 106.8393 135° Southeast  Level Estimated
03:18AM 29.4586 106.9382 135° Southeast  Level Estimated
03:19AM 29.3715 107.0369 135° Southeast  Level Estimated
03:20AM 29.2843 107.1354 135° Southeast  Level Estimated
03:21AM 29.1971 107.2338 135° Southeast  Level Estimated
03:22AM 29.1098 107.3320 135° Southeast  Level Estimated
03:23AM 29.0224 107.4300 136° Southeast  Level Estimated
03:24AM 28.9350 107.5279 136° Southeast  Level Estimated
03:25AM 28.8474 107.6256 136° Southeast  Level Estimated
03:26AM 28.7598 107.7231 136° Southeast  Level Estimated
03:27AM 28.6722 107.8205 136° Southeast  Level Estimated
03:28AM 28.5845 107.9177 136° Southeast  Level Estimated
03:29AM 28.4967 108.0148 136° Southeast  Level Estimated
03:30AM 28.4088 108.1117 136° Southeast  Level Estimated
03:31AM 28.3209 108.2084 136° Southeast  Level Estimated
03:32AM 28.2329 108.3050 136° Southeast  Level Estimated
03:33AM 28.1448 108.4014 136° Southeast  Level Estimated
03:34AM 28.0567 108.4976 136° Southeast  Level Estimated
03:35AM 27.9685 108.5937 136° Southeast  Level Estimated
03:36AM 27.8802 108.6897 136° Southeast  Level Estimated
03:37AM 27.7919 108.7855 136° Southeast  Level Estimated
03:38AM 27.7035 108.8811 136° Southeast  Level Estimated
03:39AM 27.6150 108.9766 136° Southeast  Level Estimated
03:40AM 27.5265 109.0719 136° Southeast  Level Estimated
03:41AM 27.4379 109.1670 136° Southeast  Level Estimated
03:42AM 27.3492 109.2620 136° Southeast  Level Estimated
03:43AM 27.2605 109.3569 136° Southeast  Level Estimated
03:44AM 27.1717 109.4516 136° Southeast  Level Estimated
03:45AM 27.0828 109.5462 137° Southeast  Level Estimated
03:46AM 26.9939 109.6406 137° Southeast  Level Estimated
03:47AM 26.9049 109.7348 137° Southeast  Level Estimated
03:48AM 26.8159 109.8290 137° Southeast  Level Estimated
03:49AM 26.7268 109.9229 137° Southeast  Level Estimated
03:50AM 26.6376 110.0167 137° Southeast  Level Estimated
03:51AM 26.5484 110.1104 137° Southeast  Level Estimated
03:52AM 26.4591 110.2039 137° Southeast  Level Estimated
03:53AM 26.3697 110.2973 137° Southeast  Level Estimated
03:54AM 26.2803 110.3905 137° Southeast  Level Estimated
03:55AM 26.1909 110.4836 137° Southeast  Level Estimated
03:56AM 26.1013 110.5766 137° Southeast  Level Estimated
03:57AM 26.0117 110.6694 137° Southeast  Level Estimated
03:58AM 25.9221 110.7620 137° Southeast  Level Estimated
03:58AM 24.6300 110.7430 137° Southeast 471 542 35,100  Level FlightAware
03:59AM 25.8324 110.8546 137° Southeast  Level Estimated
03:59AM 24.5770 110.7990 136° Southeast 469 540 35,100  Level FlightAware
03:59AM 24.5250 110.8560 135° Southeast 468 539 35,100  Level FlightAware
04:00AM 24.4730 110.9120 136° Southeast 469 540 35,100  Level FlightAware
04:01AM 24.4140 110.9770 135° Southeast 470 541 35,100  Level FlightAware
04:01AM 24.3370 111.0650 134° Southeast 471 542 35,100  Level FlightAware
04:02AM 24.2840 111.1250 134° Southeast 480 552 35,100  Level FlightAware
04:02AM 24.2210 111.1970 134° Southeast 482 555 35,100  Level FlightAware
04:03AM 24.1680 111.2600 133° Southeast 483 556 35,100 -660 Level FlightAware
04:04AM 24.1050 111.3280 135° Southeast 478 550 34,300 -1,320 Descending FlightAware
04:04AM 24.0560 111.3850 133° Southeast 480 552 33,700 -1,080 Descending FlightAware
04:05AM 23.9990 111.4490 134° Southeast 483 556 33,100 -1,020 Descending FlightAware
04:06AM 23.9310 111.5260 134° Southeast 483 556 32,400 -1,320 Descending FlightAware
04:06AM 23.8730 111.5900 135° Southeast 483 556 31,400 -1,920 Descending FlightAware
04:07AM 23.8220 111.6480 134° Southeast 482 555 30,200 -2,460 Descending FlightAware
04:07AM 23.7690 111.7070 134° Southeast 483 556 28,700 -1,320 Descending FlightAware
04:08AM 23.7210 111.7620 134° Southeast 483 556 28,700 -2,520 Level FlightAware
04:09AM 23.6570 111.8340 134° Southeast 471 542 25,600 -3,840 Descending FlightAware
04:09AM 23.6060 111.8910 134° Southeast 461 531 24,200 -2,520 Descending FlightAware
04:10AM 23.5510 111.9520 135° Southeast 443 510 22,700 -2,520 Descending FlightAware
04:10AM 23.5050 112.0040 134° Southeast 432 497 21,300 -2,400 Descending FlightAware
04:11AM 23.4780 112.0340 134° Southeast 427 491 20,500 -2,460 Descending FlightAware
04:11AM 23.4150 112.1050 134° Southeast 412 474 18,600 -2,520 Descending FlightAware
04:12AM 23.3560 112.1700 135° Southeast 403 464 16,800 -2,520 Descending FlightAware
04:13AM 23.3040 112.2280 134° Southeast 394 453 15,100 -2,460 Descending FlightAware
04:13AM 23.2590 112.2780 134° Southeast 388 447 13,700 -1,800 Descending FlightAware
04:14AM 23.2180 112.3230 135° Southeast 383 441 13,100 -1,140 Descending FlightAware
04:14AM 23.2020 112.3480 125° Southeast 380 437 12,800 -1,140 Descending FlightAware
04:14AM 23.1930 112.3770 109° East 374 430 12,500 -660 Descending FlightAware
04:15AM 23.1810 112.4330 103° East 357 411 12,300 -480 Descending FlightAware
04:16AM 23.1690 112.4910 103° East 336 387 12,000 -540 Descending FlightAware
04:16AM 23.1570 112.5500 102° East 332 382 11,700 -720 Descending FlightAware
04:17AM 23.1450 112.6080 103° East 310 357 11,200 -900 Descending FlightAware
04:17AM 23.1340 112.6600 103° East 287 330 10,700 -1,320 Descending FlightAware
04:18AM 23.1260 112.6990 103° East 288 331 9,800 -1,680 Descending FlightAware
04:18AM 23.1200 112.7270 103° East 284 327 9,400 -1,140 Descending FlightAware
04:18AM 23.1150 112.7500 103° East 283 326 9,100 -1,140 Descending FlightAware
04:19AM 23.1100 112.7710 105° East 285 328 8,800 -1,080 Descending FlightAware
04:19AM 23.1050 112.8060 99° East 287 330 8,400 -1,080 Descending FlightAware
04:20AM 23.1060 112.8460 88° East 289 333 7,900 -960 Descending FlightAware
04:20AM 23.1080 112.8980 88° East 279 321 7,400 -1,020 Descending FlightAware
04:20AM 23.1120 112.9250 81° East 270 311 7,000 -1,320 Descending FlightAware
04:21AM 23.1160 112.9460 78° East 270 311 6,600 -1,680 Descending FlightAware
04:21AM 23.1220 112.9720 76° East 270 311 6,000 -1,740 Descending FlightAware
04:21AM 23.1270 112.9980 78° East 273 314 5,500 -1,500 Descending FlightAware
04:22AM 23.1310 113.0150 76° East 271 312 5,200 -1,140 Descending FlightAware
04:22AM 23.1380 113.0460 76° East 268 308 4,800 -960 Descending FlightAware
04:22AM 23.1440 113.0750 77° East 258 297 4,500 -720 Descending FlightAware
04:23AM 23.1490 113.1000 78° East 247 284 4,300 -600 Descending FlightAware
04:23AM 23.1540 113.1240 77° East 234 269 4,100 -540 Descending FlightAware
04:23AM 23.1580 113.1420 76° East 228 262 4,000 -720 Descending FlightAware
04:24AM 23.1630 113.1640 76° East 228 262 3,700 -780 Descending FlightAware
04:24AM 23.1680 113.1860 76° East 227 261 3,500 -600 Descending FlightAware
04:24AM 23.1750 113.2120 74° East 220 253 3,300 -720 Descending FlightAware
04:25AM 23.1820 113.2230 55° Northeast 211 243 3,100 -600 Descending FlightAware
04:25AM 23.1940 113.2380 49° Northeast 198 228 3,000 -300 Descending FlightAware
04:25AM 23.2090 113.2550 46° Northeast 181 208 2,900 -360 Descending FlightAware
04:26AM 23.2170 113.2630 43° Northeast 181 208 2,800 -300 Descending FlightAware
04:26AM 23.2220 113.2650 20° North 183 211 2,800  Level FlightAware
04:26AM 23.2390 113.2680 North 170 196 2,800 -180 Level FlightAware
04:26AM 23.2530 113.2720 15° North 155 178 2,700 -720 Descending FlightAware
04:27AM 23.2700 113.2770 15° North 148 170 2,300 -840 Descending FlightAware
04:27AM 23.2830 113.2800 12° North 135 155 2,100 -600 Descending FlightAware
04:27AM 23.2940 113.2830 14° North 127 146 1,900 -780 Descending FlightAware
04:28AM 23.3060 113.2860 13° North 124 143 1,600 -780 Descending FlightAware
04:28AM 23.3160 113.2890 15° North 123 142 1,400 -300 Descending FlightAware
04:28AM 23.3290 113.2930 16° North 123 142 1,400  Level FlightAware
04:31AM 23.3924 113.2988 North  Level Estimated
04:32AM 23.3924 113.2988 223° Southwest  Level Estimated
04:33AM 23.3924 113.2988 223° Southwest  Level Estimated
04:34AM 23.3924 113.2988 223° Southwest  Level Estimated
04:35AM 23.3924 113.2988 223° Southwest  Level Estimated
04:36AM 23.3924 113.2988 223° Southwest  Level Estimated
04:37AM 23.3924 113.2988 223° Southwest  Level Estimated
04:38AM 23.3924 113.2988 223° Southwest  Level Estimated
04:39AM 23.3924 113.2988 223° Southwest  Level Estimated
04:40AM 23.3924 113.2988 223° Southwest  Level Estimated
04:41AM 23.3924 113.2988 223° Southwest  Level Estimated
04:42AM 23.3924 113.2988 223° Southwest  Level Estimated
04:43AM 23.3924 113.2988 223° Southwest  Level Estimated